sensor_id;sensor_type;location;lat;lon;timestamp;P1;durP1;ratioP1;P2;durP2;ratioP2
18473;SDS011;30265;52.408;13.500;2023-04-24T00:05:21;8.18;;;5.05;;
18473;SDS011;30265;52.408;13.500;2023-04-24T00:15:44;7.95;;;4.93;;
18473;SDS011;30265;52.408;13.500;2023-04-24T00:26:06;8.48;;;5.18;;
18473;SDS011;30265;52.408;13.500;2023-04-24T00:36:29;9.90;;;5.40;;
18473;SDS011;30265;52.408;13.500;2023-04-24T00:46:52;7.45;;;4.70;;
18473;SDS011;30265;52.408;13.500;2023-04-24T00:57:16;7.90;;;4.97;;
18473;SDS011;30265;52.408;13.500;2023-04-24T01:07:40;8.80;;;5.15;;
18473;SDS011;30265;52.408;13.500;2023-04-24T01:18:07;7.95;;;4.55;;
18473;SDS011;30265;52.408;13.500;2023-04-24T01:28:30;7.60;;;4.88;;
18473;SDS011;30265;52.408;13.500;2023-04-24T01:38:51;10.48;;;5.55;;
18473;SDS011;30265;52.408;13.500;2023-04-24T01:49:15;8.57;;;4.95;;
18473;SDS011;30265;52.408;13.500;2023-04-24T01:59:37;9.43;;;5.95;;
18473;SDS011;30265;52.408;13.500;2023-04-24T02:10:00;8.82;;;5.30;;
18473;SDS011;30265;52.408;13.500;2023-04-24T02:20:24;10.90;;;5.93;;
18473;SDS011;30265;52.408;13.500;2023-04-24T02:30:47;9.88;;;5.63;;
18473;SDS011;30265;52.408;13.500;2023-04-24T02:41:08;9.02;;;5.82;;
18473;SDS011;30265;52.408;13.500;2023-04-24T02:51:31;7.95;;;5.53;;
18473;SDS011;30265;52.408;13.500;2023-04-24T03:01:54;8.30;;;5.50;;
18473;SDS011;30265;52.408;13.500;2023-04-24T03:12:17;7.57;;;4.60;;
18473;SDS011;30265;52.408;13.500;2023-04-24T03:22:38;12.02;;;5.97;;
18473;SDS011;30265;52.408;13.500;2023-04-24T03:33:02;7.80;;;5.65;;
18473;SDS011;30265;52.408;13.500;2023-04-24T03:43:28;9.70;;;5.60;;
18473;SDS011;30265;52.408;13.500;2023-04-24T03:53:53;11.20;;;6.18;;
18473;SDS011;30265;52.408;13.500;2023-04-24T04:04:17;10.83;;;6.23;;
18473;SDS011;30265;52.408;13.500;2023-04-24T04:14:40;11.13;;;6.38;;
18473;SDS011;30265;52.408;13.500;2023-04-24T04:25:02;12.65;;;6.25;;
18473;SDS011;30265;52.408;13.500;2023-04-24T04:35:26;9.48;;;5.25;;
18473;SDS011;30265;52.408;13.500;2023-04-24T04:45:48;8.15;;;5.07;;
18473;SDS011;30265;52.408;13.500;2023-04-24T04:56:31;8.18;;;4.55;;
18473;SDS011;30265;52.408;13.500;2023-04-24T05:06:56;5.93;;;4.53;;
18473;SDS011;30265;52.408;13.500;2023-04-24T05:17:21;6.13;;;4.33;;
18473;SDS011;30265;52.408;13.500;2023-04-24T05:27:46;8.02;;;3.88;;
18473;SDS011;30265;52.408;13.500;2023-04-24T05:38:11;8.30;;;3.03;;
18473;SDS011;30265;52.408;13.500;2023-04-24T05:48:33;4.72;;;2.88;;
18473;SDS011;30265;52.408;13.500;2023-04-24T05:58:57;4.15;;;2.00;;
18473;SDS011;30265;52.408;13.500;2023-04-24T06:09:20;3.28;;;1.67;;
18473;SDS011;30265;52.408;13.500;2023-04-24T06:19:44;2.78;;;1.73;;
18473;SDS011;30265;52.408;13.500;2023-04-24T06:30:06;3.30;;;2.03;;
18473;SDS011;30265;52.408;13.500;2023-04-24T06:40:30;2.50;;;1.60;;
18473;SDS011;30265;52.408;13.500;2023-04-24T06:50:51;2.75;;;1.90;;
18473;SDS011;30265;52.408;13.500;2023-04-24T07:01:14;2.05;;;1.30;;
18473;SDS011;30265;52.408;13.500;2023-04-24T07:11:36;2.30;;;1.35;;
18473;SDS011;30265;52.408;13.500;2023-04-24T07:22:00;1.70;;;1.30;;
18473;SDS011;30265;52.408;13.500;2023-04-24T07:32:23;2.47;;;1.45;;
18473;SDS011;30265;52.408;13.500;2023-04-24T07:42:46;2.53;;;1.20;;
18473;SDS011;30265;52.408;13.500;2023-04-24T07:53:08;2.17;;;1.20;;
18473;SDS011;30265;52.408;13.500;2023-04-24T08:03:31;1.08;;;0.95;;
18473;SDS011;30265;52.408;13.500;2023-04-24T08:13:53;1.95;;;1.20;;
18473;SDS011;30265;52.408;13.500;2023-04-24T08:24:17;1.10;;;1.00;;
18473;SDS011;30265;52.408;13.500;2023-04-24T08:34:38;2.10;;;0.98;;
18473;SDS011;30265;52.408;13.500;2023-04-24T08:45:01;1.98;;;1.20;;
18473;SDS011;30265;52.408;13.500;2023-04-24T08:55:23;1.20;;;1.10;;
18473;SDS011;30265;52.408;13.500;2023-04-24T09:05:48;0.80;;;0.80;;
18473;SDS011;30265;52.408;13.500;2023-04-24T09:16:11;1.40;;;1.10;;
18473;SDS011;30265;52.408;13.500;2023-04-24T09:26:36;2.80;;;2.10;;
18473;SDS011;30265;52.408;13.500;2023-04-24T09:36:58;4.63;;;1.40;;
18473;SDS011;30265;52.408;13.500;2023-04-24T09:47:22;2.45;;;1.23;;
18473;SDS011;30265;52.408;13.500;2023-04-24T09:57:47;3.17;;;1.20;;
18473;SDS011;30265;52.408;13.500;2023-04-24T10:08:12;2.88;;;1.10;;
18473;SDS011;30265;52.408;13.500;2023-04-24T10:18:35;3.67;;;1.23;;
18473;SDS011;30265;52.408;13.500;2023-04-24T10:28:58;1.95;;;1.55;;
18473;SDS011;30265;52.408;13.500;2023-04-24T10:39:20;3.70;;;1.33;;
18473;SDS011;30265;52.408;13.500;2023-04-24T10:49:48;1.52;;;1.20;;
18473;SDS011;30265;52.408;13.500;2023-04-24T11:00:13;1.70;;;1.40;;
18473;SDS011;30265;52.408;13.500;2023-04-24T11:10:39;1.67;;;1.40;;
18473;SDS011;30265;52.408;13.500;2023-04-24T11:21:09;2.33;;;1.30;;
18473;SDS011;30265;52.408;13.500;2023-04-24T11:31:36;3.75;;;1.45;;
18473;SDS011;30265;52.408;13.500;2023-04-24T11:42:02;2.10;;;1.80;;
18473;SDS011;30265;52.408;13.500;2023-04-24T11:52:27;2.35;;;1.88;;
18473;SDS011;30265;52.408;13.500;2023-04-24T12:02:49;2.72;;;1.67;;
18473;SDS011;30265;52.408;13.500;2023-04-24T12:13:12;2.10;;;1.70;;
18473;SDS011;30265;52.408;13.500;2023-04-24T12:23:34;3.22;;;2.17;;
18473;SDS011;30265;52.408;13.500;2023-04-24T12:33:58;2.30;;;1.40;;
18473;SDS011;30265;52.408;13.500;2023-04-24T12:44:19;1.48;;;1.23;;
18473;SDS011;30265;52.408;13.500;2023-04-24T12:54:42;1.33;;;1.00;;
18473;SDS011;30265;52.408;13.500;2023-04-24T13:05:05;1.35;;;1.10;;
18473;SDS011;30265;52.408;13.500;2023-04-24T13:15:28;1.08;;;0.98;;
18473;SDS011;30265;52.408;13.500;2023-04-24T13:25:50;1.27;;;0.90;;
18473;SDS011;30265;52.408;13.500;2023-04-24T13:36:12;1.10;;;1.00;;
18473;SDS011;30265;52.408;13.500;2023-04-24T13:46:34;1.45;;;1.02;;
18473;SDS011;30265;52.408;13.500;2023-04-24T13:56:57;2.55;;;1.00;;
18473;SDS011;30265;52.408;13.500;2023-04-24T14:07:26;1.27;;;1.10;;
18473;SDS011;30265;52.408;13.500;2023-04-24T14:17:51;1.27;;;1.00;;
18473;SDS011;30265;52.408;13.500;2023-04-24T14:28:13;1.53;;;1.10;;
18473;SDS011;30265;52.408;13.500;2023-04-24T14:38:36;1.33;;;1.08;;
18473;SDS011;30265;52.408;13.500;2023-04-24T14:48:57;1.75;;;1.08;;
18473;SDS011;30265;52.408;13.500;2023-04-24T14:59:20;2.38;;;1.30;;
18473;SDS011;30265;52.408;13.500;2023-04-24T15:09:42;1.42;;;1.33;;
18473;SDS011;30265;52.408;13.500;2023-04-24T15:20:06;2.47;;;1.45;;
18473;SDS011;30265;52.408;13.500;2023-04-24T15:30:29;1.73;;;1.30;;
18473;SDS011;30265;52.408;13.500;2023-04-24T15:40:52;3.17;;;1.40;;
18473;SDS011;30265;52.408;13.500;2023-04-24T15:51:13;1.90;;;1.38;;
18473;SDS011;30265;52.408;13.500;2023-04-24T16:01:36;1.65;;;1.42;;
18473;SDS011;30265;52.408;13.500;2023-04-24T16:12:05;2.75;;;1.40;;
18473;SDS011;30265;52.408;13.500;2023-04-24T16:22:28;2.25;;;1.25;;
18473;SDS011;30265;52.408;13.500;2023-04-24T16:32:50;2.33;;;1.30;;
18473;SDS011;30265;52.408;13.500;2023-04-24T16:43:15;2.25;;;1.67;;
18473;SDS011;30265;52.408;13.500;2023-04-24T16:53:40;2.60;;;1.30;;
18473;SDS011;30265;52.408;13.500;2023-04-24T17:04:02;2.08;;;1.30;;
18473;SDS011;30265;52.408;13.500;2023-04-24T17:14:25;3.25;;;1.40;;
18473;SDS011;30265;52.408;13.500;2023-04-24T17:24:48;1.88;;;1.42;;
18473;SDS011;30265;52.408;13.500;2023-04-24T17:35:10;3.33;;;2.20;;
18473;SDS011;30265;52.408;13.500;2023-04-24T17:45:33;2.45;;;1.60;;
18473;SDS011;30265;52.408;13.500;2023-04-24T17:55:56;2.95;;;2.10;;
18473;SDS011;30265;52.408;13.500;2023-04-24T18:06:22;3.00;;;2.13;;
18473;SDS011;30265;52.408;13.500;2023-04-24T18:16:43;3.20;;;2.63;;
18473;SDS011;30265;52.408;13.500;2023-04-24T18:27:10;1.70;;;1.52;;
18473;SDS011;30265;52.408;13.500;2023-04-24T18:37:31;1.95;;;1.55;;
18473;SDS011;30265;52.408;13.500;2023-04-24T18:47:55;1.48;;;1.10;;
18473;SDS011;30265;52.408;13.500;2023-04-24T18:58:16;1.20;;;1.00;;
18473;SDS011;30265;52.408;13.500;2023-04-24T19:08:39;1.35;;;1.00;;
18473;SDS011;30265;52.408;13.500;2023-04-24T19:19:02;1.13;;;1.02;;
18473;SDS011;30265;52.408;13.500;2023-04-24T19:29:26;1.15;;;1.05;;
18473;SDS011;30265;52.408;13.500;2023-04-24T19:39:48;2.20;;;1.52;;
18473;SDS011;30265;52.408;13.500;2023-04-24T19:50:11;3.95;;;3.00;;
18473;SDS011;30265;52.408;13.500;2023-04-24T20:00:34;5.22;;;1.98;;
18473;SDS011;30265;52.408;13.500;2023-04-24T20:10:58;3.20;;;1.65;;
18473;SDS011;30265;52.408;13.500;2023-04-24T20:21:20;4.88;;;2.47;;
18473;SDS011;30265;52.408;13.500;2023-04-24T20:31:43;5.35;;;2.70;;
18473;SDS011;30265;52.408;13.500;2023-04-24T20:42:04;2.97;;;2.28;;
18473;SDS011;30265;52.408;13.500;2023-04-24T20:52:27;3.47;;;2.13;;
18473;SDS011;30265;52.408;13.500;2023-04-24T21:02:50;5.20;;;2.63;;
18473;SDS011;30265;52.408;13.500;2023-04-24T21:13:13;6.10;;;2.25;;
18473;SDS011;30265;52.408;13.500;2023-04-24T21:23:35;3.55;;;2.75;;
18473;SDS011;30265;52.408;13.500;2023-04-24T21:33:58;5.22;;;2.15;;
18473;SDS011;30265;52.408;13.500;2023-04-24T21:44:19;4.22;;;2.63;;
18473;SDS011;30265;52.408;13.500;2023-04-24T21:54:42;3.25;;;2.05;;
18473;SDS011;30265;52.408;13.500;2023-04-24T22:05:04;6.03;;;3.17;;
18473;SDS011;30265;52.408;13.500;2023-04-24T22:15:28;4.65;;;3.08;;
18473;SDS011;30265;52.408;13.500;2023-04-24T22:25:50;3.40;;;2.45;;
18473;SDS011;30265;52.408;13.500;2023-04-24T22:36:13;3.70;;;2.42;;
18473;SDS011;30265;52.408;13.500;2023-04-24T22:46:37;2.97;;;2.25;;
18473;SDS011;30265;52.408;13.500;2023-04-24T22:57:00;4.85;;;2.53;;
18473;SDS011;30265;52.408;13.500;2023-04-24T23:07:22;4.30;;;2.90;;
18473;SDS011;30265;52.408;13.500;2023-04-24T23:17:46;9.27;;;2.72;;
18473;SDS011;30265;52.408;13.500;2023-04-24T23:28:07;7.22;;;2.88;;
18473;SDS011;30265;52.408;13.500;2023-04-24T23:38:31;5.28;;;3.28;;
18473;SDS011;30265;52.408;13.500;2023-04-24T23:49:08;5.60;;;2.60;;
18473;SDS011;30265;52.408;13.500;2023-04-24T23:59:31;4.50;;;2.50;;
